Time;durP1;ratioP1;P1;durP2;ratioP2;P2;SDS_P1;SDS_P2;PMS_P1;PMS_P2;Temp;Humidity;BMP_temperature;BMP_pressure;BME280_temperature;BME280_humidity;BME280_pressure;Samples;Min_cycle;Max_cycle;Signal;HPM_P1;HPM_P2
2023/07/21 00:00:56;;;;;;;5.97;2.95;;;;;;;12.48;100.00;92743.13;2421980;24;20014;-82
2023/07/21 00:02:01;;;;;;;4.53;2.90;;;;;;;12.42;100.00;92734.13;2429006;24;20009;-80
2023/07/21 00:03:06;;;;;;;5.30;3.22;;;;;;;12.33;100.00;92736.75;2451096;24;20489;-84
2023/07/21 00:06:19;;;;;;;5.22;3.00;;;;;;;12.19;100.00;92729.94;2418602;24;20010;-85
2023/07/21 00:10:27;;;;;;;3.72;2.58;;;;;;;12.21;100.00;92721.50;2410943;24;20018;-82
2023/07/21 00:16:12;;;;;;;4.85;2.63;;;;;;;12.37;100.00;92721.28;2398993;24;20402;-82
2023/07/21 00:17:20;;;;;;;5.07;2.83;;;;;;;12.43;100.00;92724.19;2406458;24;20035;-82
2023/07/21 00:18:24;;;;;;;6.30;2.67;;;;;;;12.43;100.00;92719.56;2415942;24;20045;-81
2023/07/21 00:19:31;;;;;;;6.00;3.05;;;;;;;12.37;100.00;92723.22;2470159;24;20116;-82
2023/07/21 00:20:36;;;;;;;8.20;3.20;;;;;;;12.31;100.00;92723.03;2487000;23;20018;-83
2023/07/21 00:21:42;;;;;;;5.85;2.95;;;;;;;12.36;100.00;92722.47;2504343;23;20020;-82
2023/07/21 00:22:51;;;;;;;5.22;3.20;;;;;;;12.37;100.00;92721.28;2523448;23;20003;-83
2023/07/21 00:23:59;;;;;;;4.45;2.65;;;;;;;12.39;100.00;92724.28;2523450;23;20006;-84
2023/07/21 00:25:06;;;;;;;2.95;2.65;;;;;;;12.30;100.00;92719.63;2513252;23;20326;-83
2023/07/21 00:26:13;;;;;;;5.47;2.90;;;;;;;12.22;100.00;92722.97;2524937;23;20449;-81
2023/07/21 00:27:22;;;;;;;6.30;2.80;;;;;;;12.22;100.00;92723.72;2546363;23;20005;-83
2023/07/21 00:28:27;;;;;;;6.00;3.20;;;;;;;12.26;100.00;92712.88;2535906;23;20010;-82
2023/07/21 00:29:36;;;;;;;4.68;2.60;;;;;;;12.19;100.00;92713.88;2535139;23;20584;-82
2023/07/21 00:30:54;;;;;;;3.30;2.72;;;;;;;12.04;100.00;92716.28;2535980;23;20009;-82
2023/07/21 00:32:18;;;;;;;6.60;3.05;;;;;;;12.14;100.00;92714.44;2539246;23;20348;-82
2023/07/21 00:33:57;;;;;;;;;;;;;;;;;;;;;
2023/07/21 00:35:49;;;;;;;6.22;2.70;;;;;;;12.33;100.00;92702.66;2543892;23;20005;-83
2023/07/21 00:37:25;;;;;;;3.58;3.08;;;;;;;12.33;100.00;92705.31;2527448;23;20559;-82
2023/07/21 00:38:36;;;;;;;5.82;2.95;;;;;;;12.25;100.00;92704.09;2532371;23;20049;-83
2023/07/21 00:42:03;;;;;;;5.90;3.38;;;;;;;12.33;100.00;92704.59;2513530;23;19912;-83
2023/07/21 00:43:25;;;;;;;7.40;3.17;;;;;;;12.37;100.00;92710.56;2490751;23;20008;-83
2023/07/21 00:44:30;;;;;;;6.20;3.25;;;;;;;12.46;100.00;92712.56;2489951;23;20011;-83
2023/07/21 00:45:37;;;;;;;5.28;3.20;;;;;;;12.31;100.00;92712.31;2484395;23;20402;-83
2023/07/21 00:46:44;;;;;;;9.52;3.08;;;;;;;12.32;100.00;92708.44;2536604;23;20044;-83
2023/07/21 00:47:50;;;;;;;5.47;3.65;;;;;;;12.27;100.00;92701.72;2523023;23;20013;-84
2023/07/21 00:48:56;;;;;;;6.72;3.40;;;;;;;12.27;100.00;92703.66;2511517;23;20010;-83
2023/07/21 00:50:01;;;;;;;4.55;3.25;;;;;;;12.41;100.00;92702.41;2512705;23;20639;-83
2023/07/21 00:51:11;;;;;;;5.38;3.00;;;;;;;12.30;100.00;92694.75;2511835;23;20121;-81
2023/07/21 00:52:18;;;;;;;4.90;2.75;;;;;;;12.28;100.00;92697.09;2515877;23;20003;-81
2023/07/21 00:53:26;;;;;;;8.15;2.70;;;;;;;12.33;100.00;92701.91;2523313;23;20113;-82
2023/07/21 00:54:35;;;;;;;4.97;3.00;;;;;;;12.25;100.00;92701.44;2515625;23;20027;-82
2023/07/21 00:56:08;;;;;;;8.10;3.30;;;;;;;12.22;100.00;92699.59;2537399;23;20332;-80
2023/07/21 00:57:26;;;;;;;5.63;2.97;;;;;;;12.23;100.00;92698.41;2525405;23;20013;-81
2023/07/21 00:58:52;;;;;;;6.25;2.88;;;;;;;12.16;100.00;92696.00;2529806;23;20274;-84
2023/07/21 01:02:28;;;;;;;4.50;2.75;;;;;;;12.09;100.00;92691.63;2512367;23;20007;-82
2023/07/21 01:03:42;;;;;;;4.68;3.08;;;;;;;12.08;100.00;92684.78;2499729;23;20003;-84
2023/07/21 01:05:26;;;;;;;5.70;3.10;;;;;;;12.18;100.00;92685.59;2492026;23;20031;-83
2023/07/21 01:06:47;;;;;;;4.18;3.28;;;;;;;12.17;100.00;92688.72;2493639;23;20018;-84
2023/07/21 01:08:12;;;;;;;6.03;4.07;;;;;;;12.02;100.00;92691.09;2492983;23;20008;-84
2023/07/21 01:09:48;;;;;;;4.30;2.95;;;;;;;12.03;100.00;92685.34;2491178;23;20022;-83
2023/07/21 01:11:34;;;;;;;6.28;3.30;;;;;;;12.08;100.00;92682.09;2515233;23;20006;-83
2023/07/21 01:13:07;;;;;;;5.53;3.13;;;;;;;12.02;100.00;92683.81;2556992;23;20028;-80
2023/07/21 01:14:48;;;;;;;;;;;;;;;;;;;;;
2023/07/21 01:16:43;;;;;;;6.40;3.35;;;;;;;12.12;100.00;92673.94;2562901;23;20083;-81
2023/07/21 01:18:12;;;;;;;6.32;3.08;;;;;;;12.06;100.00;92675.66;2538562;23;20081;-81
2023/07/21 01:19:34;;;;;;;5.28;2.95;;;;;;;12.05;100.00;92672.25;2527081;23;20001;-85
2023/07/21 01:20:43;;;;;;;13.48;4.03;;;;;;;11.89;100.00;92685.81;2522781;23;20052;-84
2023/07/21 01:22:11;;;;;;;5.80;3.33;;;;;;;11.82;100.00;92680.66;2535603;23;20013;-83
2023/07/21 01:23:45;;;;;;;4.75;3.38;;;;;;;11.78;100.00;92669.31;2526768;23;20025;-85
2023/07/21 01:25:19;;;;;;;4.88;2.90;;;;;;;11.81;100.00;92676.50;2528242;23;20010;-84
2023/07/21 01:26:24;;;;;;;5.28;3.20;;;;;;;11.88;100.00;92662.88;2528127;23;20006;-82
2023/07/21 01:27:31;;;;;;;4.78;3.10;;;;;;;11.87;100.00;92674.78;2510432;23;20268;-81
2023/07/21 01:28:37;;;;;;;5.65;3.42;;;;;;;11.92;100.00;92660.09;2513171;23;20098;-82
2023/07/21 01:29:44;;;;;;;7.30;3.28;;;;;;;11.84;100.00;92670.28;2519334;23;20019;-81
2023/07/21 01:30:53;;;;;;;5.32;3.40;;;;;;;11.82;100.00;92664.59;2540137;23;20026;-83
2023/07/21 01:31:59;;;;;;;5.95;3.47;;;;;;;11.82;100.00;92662.69;2529920;23;20017;-83
2023/07/21 01:33:11;;;;;;;4.50;3.17;;;;;;;11.82;100.00;92664.59;2530838;23;19998;-83
2023/07/21 01:34:20;;;;;;;11.25;3.50;;;;;;;11.84;100.00;92667.59;2533227;23;20038;-82
2023/07/21 01:35:28;;;;;;;6.67;3.37;;;;;;;11.79;100.00;92662.78;2551279;23;20128;-81
2023/07/21 01:36:36;;;;;;;4.65;3.30;;;;;;;11.70;100.00;92660.03;2538763;23;20402;-81
2023/07/21 01:37:44;;;;;;;5.40;3.25;;;;;;;11.59;100.00;92657.72;2525548;23;20006;-82
2023/07/21 01:38:51;;;;;;;4.57;3.42;;;;;;;11.60;100.00;92657.28;2537227;23;20433;-81
2023/07/21 01:40:01;;;;;;;5.40;2.95;;;;;;;11.63;100.00;92655.66;2521811;23;20418;-84
2023/07/21 01:41:08;;;;;;;4.53;3.55;;;;;;;11.58;100.00;92658.88;2511703;23;20018;-82
2023/07/21 01:42:16;;;;;;;7.43;3.00;;;;;;;11.70;100.00;92660.78;2510797;23;20061;-84
2023/07/21 01:43:23;;;;;;;5.15;3.00;;;;;;;11.74;100.00;92656.06;2500225;23;20117;-82
2023/07/21 01:44:28;;;;;;;4.35;3.15;;;;;;;11.72;100.00;92660.34;2500412;23;20034;-84
2023/07/21 01:45:34;;;;;;;5.38;3.33;;;;;;;11.58;100.00;92661.56;2510853;23;20026;-81
2023/07/21 01:46:42;;;;;;;8.02;3.38;;;;;;;11.64;100.00;92659.09;2515044;23;20007;-83
2023/07/21 01:47:56;;;;;;;6.07;3.30;;;;;;;11.62;100.00;92656.09;2520358;23;20018;-83
2023/07/21 01:49:03;;;;;;;4.75;3.10;;;;;;;11.55;100.00;92652.47;2524835;23;20011;-82
2023/07/21 01:50:20;;;;;;;6.10;3.40;;;;;;;11.66;100.00;92659.41;2533400;23;20009;-82
2023/07/21 01:51:45;;;;;;;;;;;;;;;;;;;;;
2023/07/21 01:53:23;;;;;;;;;;;;;;;;;;;;;
2023/07/21 01:55:41;;;;;;;5.85;2.88;;;;;;;11.49;100.00;92651.53;2534132;23;20014;-81
2023/07/21 01:57:07;;;;;;;6.80;3.40;;;;;;;11.50;100.00;92654.94;2486628;23;20007;-80
2023/07/21 01:58:58;;;;;;;8.93;3.33;;;;;;;11.39;100.00;92649.94;2485439;23;20016;-82
2023/07/21 02:02:15;;;;;;;7.57;3.10;;;;;;;11.31;100.00;92659.38;2489718;23;20008;-83
2023/07/21 02:03:34;;;;;;;5.22;3.00;;;;;;;11.33;100.00;92649.00;2480668;23;20039;-82
2023/07/21 02:05:01;;;;;;;4.22;3.35;;;;;;;11.22;100.00;92648.59;2488195;23;20018;-82
2023/07/21 02:06:19;;;;;;;6.03;3.17;;;;;;;11.28;100.00;92652.97;2492977;23;20007;-81
2023/07/21 02:07:25;;;;;;;5.90;3.40;;;;;;;11.30;100.00;92649.84;2497219;23;20007;-81
2023/07/21 02:08:31;;;;;;;5.80;3.20;;;;;;;11.28;100.00;92646.84;2496731;23;20423;-81
2023/07/21 02:09:35;;;;;;;5.70;2.83;;;;;;;11.14;100.00;92653.41;2511931;23;20010;-82
2023/07/21 02:10:38;;;;;;;6.15;3.17;;;;;;;11.16;100.00;92650.31;2500122;23;20043;-82
2023/07/21 02:11:48;;;;;;;11.63;3.40;;;;;;;11.19;100.00;92644.09;2523067;23;20006;-83
2023/07/21 02:12:51;;;;;;;10.23;3.83;;;;;;;11.24;100.00;92640.91;2534841;23;20258;-81
2023/07/21 02:14:00;;;;;;;5.05;3.20;;;;;;;11.27;100.00;92642.69;2509617;23;20429;-82
2023/07/21 02:15:07;;;;;;;5.22;3.22;;;;;;;11.22;100.00;92645.91;2512937;23;20415;-83
2023/07/21 02:16:15;;;;;;;6.53;2.90;;;;;;;11.29;100.00;92643.03;2511788;23;20497;-82
2023/07/21 02:17:17;;;;;;;7.32;2.70;;;;;;;11.23;100.00;92642.78;2524049;23;19998;-82
2023/07/21 02:18:22;;;;;;;5.60;3.38;;;;;;;11.26;100.00;92639.25;2521367;23;20002;-82
2023/07/21 02:19:27;;;;;;;7.18;3.20;;;;;;;11.19;100.00;92641.41;2511617;23;20006;-81
2023/07/21 03:30:29;;;;;;;5.63;3.30;;;;;;;10.08;100.00;92625.97;2385036;24;20024;-71
2023/07/21 03:32:15;;;;;;;5.82;3.22;;;;;;;10.07;100.00;92622.53;2424508;24;20032;-71
2023/07/21 03:56:44;;;;;;;5.57;3.47;;;;;;;10.07;100.00;92617.19;2538682;23;20044;31
2023/07/21 03:57:55;;;;;;;6.90;3.63;;;;;;;10.09;100.00;92614.84;2510504;23;20414;-82
2023/07/21 03:59:01;;;;;;;;;;;;;;;10.05;100.00;92616.13;2517719;23;20090;-81
2023/07/21 04:00:46;;;;;;;7.10;2.83;;;;;;;9.97;100.00;92609.50;2504129;23;19954;-82
2023/07/21 04:04:47;;;;;;;7.07;3.38;;;;;;;10.08;100.00;92613.34;2540809;23;20041;-81
2023/07/21 04:06:36;;;;;;;8.93;3.22;;;;;;;10.04;100.00;92615.38;2515487;23;20018;-81
2023/07/21 04:08:19;;;;;;;5.75;3.67;;;;;;;9.98;100.00;92611.00;2528558;23;20010;-81
2023/07/21 04:10:07;;;;;;;4.93;3.15;;;;;;;10.00;100.00;92612.03;2511747;23;20021;-83
2023/07/21 04:12:02;;;;;;;3.67;3.10;;;;;;;9.97;100.00;92618.25;2508245;23;20010;-82
2023/07/21 04:13:46;;;;;;;6.25;3.28;;;;;;;9.94;100.00;92603.06;2521795;23;20101;-83
2023/07/21 04:36:59;;;;;;;4.63;3.00;;;;;;;10.16;100.00;92597.88;2541968;23;20094;-82
2023/07/21 04:38:10;;;;;;;6.40;3.25;;;;;;;10.17;100.00;92591.38;2559808;23;20016;-81
2023/07/21 04:40:04;;;;;;;5.07;3.45;;;;;;;10.23;100.00;92599.63;2560792;23;20011;-81
2023/07/21 04:41:16;;;;;;;4.97;3.15;;;;;;;10.30;100.00;92597.50;2563207;23;20003;-81
2023/07/21 04:42:24;;;;;;;8.45;3.72;;;;;;;10.41;100.00;92593.78;2555453;23;20147;-81
2023/07/21 04:43:29;;;;;;;5.05;3.20;;;;;;;10.33;100.00;92585.97;2552530;23;19992;-81
2023/07/21 04:44:40;;;;;;;6.97;3.40;;;;;;;10.22;100.00;92596.16;2541756;23;20002;-83
2023/07/21 04:45:51;;;;;;;8.68;4.25;;;;;;;10.34;100.00;92592.81;2550352;23;20012;-81
2023/07/21 04:46:59;;;;;;;5.50;3.58;;;;;;;10.38;100.00;92592.69;2553946;23;20001;-83
2023/07/21 04:49:13;;;;;;;9.45;3.40;;;;;;;10.42;100.00;92596.03;2554589;23;20355;-82
2023/07/21 04:51:09;;;;;;;8.10;3.60;;;;;;;10.50;100.00;92589.28;2537812;23;20037;-85
2023/07/21 04:52:37;;;;;;;5.40;3.10;;;;;;;10.51;100.00;92585.44;2561019;23;20005;-80
2023/07/21 04:53:48;;;;;;;8.07;3.83;;;;;;;10.55;100.00;92585.34;2548242;23;20002;-85
2023/07/21 04:55:22;;;;;;;7.13;3.60;;;;;;;10.57;100.00;92583.72;2563765;23;20051;-81
2023/07/21 04:56:35;;;;;;;6.60;3.63;;;;;;;10.58;100.00;92587.91;2562038;23;20016;-82
2023/07/21 04:58:20;;;;;;;8.40;3.85;;;;;;;10.67;100.00;92586.50;2557695;23;20013;-81
2023/07/21 04:59:31;;;;;;;9.38;3.38;;;;;;;10.74;100.00;92591.63;2519575;23;20779;-83
2023/07/21 05:00:43;;;;;;;7.00;3.60;;;;;;;10.73;100.00;92590.88;2535933;23;20044;-79
2023/07/21 05:01:52;;;;;;;7.57;3.40;;;;;;;10.75;100.00;92590.44;2539052;23;20025;-82
2023/07/21 05:03:04;;;;;;;7.97;3.67;;;;;;;10.79;100.00;92596.44;2547853;23;20012;-82
2023/07/21 05:04:19;;;;;;;14.45;4.00;;;;;;;10.82;100.00;92593.66;2546733;23;20085;-82
2023/07/21 05:06:14;;;;;;;8.05;3.58;;;;;;;10.85;100.00;92600.06;2527097;23;20021;-83
2023/07/21 05:07:55;;;;;;;5.75;3.70;;;;;;;10.97;100.00;92601.22;2508556;23;20370;-82
2023/07/21 05:09:55;;;;;;;7.82;4.28;;;;;;;11.02;100.00;92598.78;2501491;23;20043;-81
2023/07/21 05:11:37;;;;;;;10.00;3.70;;;;;;;11.10;100.00;92600.00;2490070;23;20478;-83
2023/07/21 05:13:27;;;;;;;9.38;4.10;;;;;;;11.15;100.00;92601.41;2458432;24;20047;-83
2023/07/21 05:18:54;;;;;;;8.27;3.85;;;;;;;11.41;100.00;92601.34;2548172;22;20016;-83
2023/07/21 05:19:59;;;;;;;8.63;4.28;;;;;;;11.38;100.00;92600.28;2570888;23;20026;-82
2023/07/21 05:21:03;;;;;;;7.72;3.90;;;;;;;11.45;100.00;92597.34;2563742;23;20004;-83
2023/07/21 05:22:11;;;;;;;8.30;3.97;;;;;;;11.48;100.00;92599.19;2559437;23;20448;-80
2023/07/21 05:23:20;;;;;;;9.35;4.85;;;;;;;11.55;100.00;92595.53;2558872;23;20009;-85
2023/07/21 05:24:25;;;;;;;7.47;4.22;;;;;;;11.64;100.00;92600.94;2549816;23;20012;-81
2023/07/21 05:25:33;;;;;;;8.90;4.47;;;;;;;11.71;100.00;92594.59;2546596;23;20065;-82
2023/07/21 05:26:41;;;;;;;9.55;4.97;;;;;;;11.77;100.00;92593.59;2536056;23;20010;-81
2023/07/21 05:27:50;;;;;;;11.82;4.75;;;;;;;11.89;100.00;92594.75;2536610;23;20041;-82
2023/07/21 05:28:55;;;;;;;13.77;4.78;;;;;;;12.02;100.00;92595.41;2550201;23;20001;-81
2023/07/21 05:30:00;;;;;;;12.40;5.20;;;;;;;12.12;100.00;92592.81;2559651;23;20092;-83
2023/07/21 05:31:06;;;;;;;8.20;4.40;;;;;;;12.18;100.00;92596.41;2558550;23;20341;-82
2023/07/21 05:32:15;;;;;;;10.82;4.65;;;;;;;12.27;100.00;92599.16;2548659;23;20045;-81
2023/07/21 05:33:23;;;;;;;11.35;4.32;;;;;;;12.33;100.00;92598.13;2560219;23;20454;-83
2023/07/21 05:34:27;;;;;;;18.60;4.68;;;;;;;12.44;100.00;92595.06;2571053;23;20024;-83
2023/07/21 05:35:30;;;;;;;14.52;5.20;;;;;;;12.49;100.00;92599.84;2558198;23;20127;-82
2023/07/21 05:36:41;;;;;;;13.57;4.97;;;;;;;12.53;100.00;92611.19;2559134;23;20009;-83
2023/07/21 05:37:46;;;;;;;9.98;4.55;;;;;;;12.61;100.00;92606.31;2559317;23;20005;-82
2023/07/21 05:38:55;;;;;;;11.68;4.60;;;;;;;12.58;100.00;92599.88;2559203;23;20410;-83
2023/07/21 05:40:15;;;;;;;12.60;4.65;;;;;;;12.56;100.00;92602.28;2558646;23;19997;-82
2023/07/21 05:41:51;;;;;;;15.55;5.13;;;;;;;12.66;100.00;92592.34;2553462;23;20412;-83
2023/07/21 05:42:59;;;;;;;8.35;4.95;;;;;;;12.74;100.00;92592.81;2578200;23;20022;-81
2023/07/21 05:44:08;;;;;;;8.57;4.47;;;;;;;12.77;100.00;92594.59;2566088;23;20416;-83
2023/07/21 05:45:18;;;;;;;11.02;4.43;;;;;;;12.82;100.00;92594.78;2547276;23;20089;-81
2023/07/21 05:49:16;;;;;;;;;;;;;;;;;;;;;
2023/07/21 05:51:07;;;;;;;15.32;5.03;;;;;;;13.10;100.00;92598.28;2563991;23;20075;-83
2023/07/21 05:52:16;;;;;;;13.88;4.55;;;;;;;13.15;100.00;92605.00;2563085;23;20241;-82
2023/07/21 05:53:49;;;;;;;15.13;4.82;;;;;;;13.17;100.00;92604.53;2561643;23;20083;-83
2023/07/21 05:59:58;;;;;;;13.15;5.10;;;;;;;13.33;100.00;92605.03;2513475;23;20338;-81
2023/07/21 06:01:27;;;;;;;14.75;5.15;;;;;;;13.43;100.00;92613.84;2509101;23;20006;-83
2023/07/21 06:02:40;;;;;;;12.00;4.80;;;;;;;13.41;100.00;92612.81;2492396;23;20047;-82
2023/07/21 06:03:50;;;;;;;16.23;5.43;;;;;;;13.46;100.00;92612.22;2487135;23;20007;-82
2023/07/21 06:04:59;;;;;;;12.07;5.30;;;;;;;13.68;100.00;92609.41;2524526;23;20010;-81
2023/07/21 06:06:09;;;;;;;13.50;6.22;;;;;;;13.81;100.00;92610.75;2530567;23;20010;-83
2023/07/21 06:07:16;;;;;;;;;;;;;;;13.91;100.00;92611.50;2524493;23;20064;-80
2023/07/21 06:08:24;;;;;;;11.98;5.40;;;;;;;14.03;100.00;92610.59;2560027;23;20168;-82
2023/07/21 06:09:34;;;;;;;12.60;5.07;;;;;;;14.16;100.00;92609.69;2556111;23;20348;-82
2023/07/21 06:11:08;;;;;;;17.67;5.38;;;;;;;14.39;100.00;92610.97;2562303;23;20019;-83
2023/07/21 06:12:18;;;;;;;16.73;6.30;;;;;;;14.44;100.00;92624.53;2555870;23;20080;-84
2023/07/21 06:13:30;;;;;;;;;;;;;;;14.51;100.00;92615.47;2543433;23;20456;-84
2023/07/21 06:14:42;;;;;;;14.20;5.43;;;;;;;14.51;100.00;92624.28;2554553;23;20413;-81
2023/07/21 06:15:56;;;;;;;13.50;5.13;;;;;;;14.70;100.00;92616.13;2555768;23;20072;-80
2023/07/21 06:17:04;;;;;;;8.02;4.45;;;;;;;14.70;100.00;92616.13;2535687;23;20656;-82
2023/07/21 06:18:17;;;;;;;10.30;4.63;;;;;;;14.90;100.00;92616.38;2522881;23;20014;-80
2023/07/21 06:19:34;;;;;;;10.63;5.07;;;;;;;14.94;100.00;92613.53;2515006;23;20014;-81
2023/07/21 06:20:44;;;;;;;10.80;5.32;;;;;;;14.96;100.00;92611.84;2525608;23;20678;-81
2023/07/21 06:21:55;;;;;;;11.60;4.90;;;;;;;14.92;100.00;92611.25;2534423;23;20338;-84
2023/07/21 06:23:08;;;;;;;9.85;4.53;;;;;;;15.00;100.00;92617.06;2533881;23;20017;-82
2023/07/21 06:24:19;;;;;;;11.27;5.18;;;;;;;14.93;100.00;92612.78;2534728;23;20698;-81
2023/07/21 06:25:30;;;;;;;10.98;4.78;;;;;;;14.93;100.00;92614.72;2533817;23;20117;-81
2023/07/21 06:26:41;;;;;;;8.38;4.47;;;;;;;14.97;100.00;92615.28;2534245;23;20344;-82
2023/07/21 06:28:08;;;;;;;9.05;4.40;;;;;;;15.33;100.00;92609.72;2522615;23;20010;-81
2023/07/21 06:29:30;;;;;;;15.50;4.25;;;;;;;15.36;100.00;92610.75;2541413;23;20012;-81
2023/07/21 06:30:44;;;;;;;9.10;3.90;;;;;;;15.23;100.00;92610.22;2545454;23;20309;-82
2023/07/21 06:31:58;;;;;;;10.23;4.25;;;;;;;15.32;100.00;92616.31;2535004;23;20006;-83
2023/07/21 06:33:07;;;;;;;8.43;4.72;;;;;;;15.54;100.00;92620.66;2521954;23;20006;-83
2023/07/21 06:34:17;;;;;;;11.38;4.28;;;;;;;15.47;100.00;92612.94;2524139;23;20089;-81
2023/07/21 06:35:27;;;;;;;;;;;;;;;15.40;100.00;92611.31;2535139;23;20089;-83
2023/07/21 06:36:42;;;;;;;11.02;4.07;;;;;;;15.52;100.00;92610.34;2522725;23;19909;-83
2023/07/21 06:38:00;;;;;;;6.68;3.55;;;;;;;15.62;100.00;92602.94;2535454;23;20409;-80
2023/07/21 06:39:14;;;;;;;6.50;4.00;;;;;;;15.75;100.00;92600.78;2537418;23;20002;-80
2023/07/21 06:40:32;;;;;;;9.55;4.35;;;;;;;15.81;100.00;92600.91;2523231;23;20006;-84
2023/07/21 06:41:49;;;;;;;8.73;4.00;;;;;;;15.84;100.00;92598.00;2527449;23;20014;-83
2023/07/21 06:43:03;;;;;;;7.18;4.10;;;;;;;15.80;100.00;92599.38;2524539;23;20061;-81
2023/07/21 06:44:20;;;;;;;9.35;4.10;;;;;;;15.93;100.00;92602.56;2534977;23;20094;-82
2023/07/21 06:45:30;;;;;;;10.95;3.85;;;;;;;15.95;100.00;92602.88;2536932;23;20014;-80
2023/07/21 06:46:47;;;;;;;7.05;3.70;;;;;;;16.02;100.00;92607.16;2535159;23;20022;-80
2023/07/21 06:47:56;;;;;;;5.43;3.63;;;;;;;16.02;100.00;92610.63;2534371;23;20010;-82
2023/07/21 06:49:16;;;;;;;8.70;3.58;;;;;;;16.04;100.00;92610.88;2531913;23;20066;-81
2023/07/21 06:50:38;;;;;;;7.68;3.58;;;;;;;16.06;100.00;92603.06;2534673;23;20460;-84
2023/07/21 06:51:50;;;;;;;5.20;3.80;;;;;;;16.17;100.00;92607.19;2548778;23;20064;-81
2023/07/21 06:53:05;;;;;;;8.55;4.00;;;;;;;16.23;100.00;92599.91;2556657;23;20009;-82
2023/07/21 06:54:17;;;;;;;7.15;3.83;;;;;;;16.17;100.00;92593.69;2544814;23;20063;-82
2023/07/21 06:55:21;;;;;;;8.60;3.50;;;;;;;16.36;100.00;92598.44;2535127;23;20102;-82
2023/07/21 06:56:27;;;;;;;16.77;4.20;;;;;;;16.23;100.00;92597.97;2545822;23;20009;-80
2023/07/21 06:57:37;;;;;;;11.13;4.15;;;;;;;16.30;100.00;92589.53;2545521;23;20080;-81
2023/07/21 06:58:43;;;;;;;;;;;;;;;16.30;100.00;92591.47;2523765;23;20010;-83
2023/07/21 06:59:50;;;;;;;5.32;2.83;;;;;;;16.37;100.00;92599.19;2534248;23;19984;-81
2023/07/21 07:01:00;;;;;;;4.88;3.42;;;;;;;16.42;100.00;92590.47;2534235;23;20096;-83
2023/07/21 07:02:17;;;;;;;8.10;3.20;;;;;;;16.47;100.00;92591.75;2532675;23;19998;-82
2023/07/21 07:03:31;;;;;;;6.22;2.80;;;;;;;16.56;100.00;92594.34;2515034;23;20177;-83
2023/07/21 07:04:47;;;;;;;6.32;3.28;;;;;;;16.62;100.00;92587.09;2513967;23;20065;-81
2023/07/21 07:05:59;;;;;;;6.93;2.88;;;;;;;16.63;100.00;92589.31;2527146;23;20053;-82
2023/07/21 07:07:15;;;;;;;5.93;3.00;;;;;;;16.76;100.00;92583.66;2523119;23;20003;-82
2023/07/21 07:08:32;;;;;;;4.97;2.90;;;;;;;16.88;100.00;92586.53;2526736;23;20045;-82
2023/07/21 07:09:47;;;;;;;4.80;2.65;;;;;;;16.95;100.00;92570.69;2536580;23;20009;-81
2023/07/21 07:10:55;;;;;;;7.78;2.90;;;;;;;17.15;100.00;92575.38;2549701;23;20005;-82
2023/07/21 07:12:07;;;;;;;5.07;2.65;;;;;;;17.26;100.00;92580.94;2533237;23;20006;-83
2023/07/21 07:13:19;;;;;;;5.65;2.38;;;;;;;17.43;100.00;92583.84;2526066;23;20036;-83
2023/07/21 07:14:33;;;;;;;8.07;2.65;;;;;;;17.44;100.00;92579.19;2523341;23;20468;-82
2023/07/21 07:15:52;;;;;;;4.63;2.63;;;;;;;17.44;100.00;92584.59;2520326;23;20010;-82
2023/07/21 07:17:05;;;;;;;6.10;2.65;;;;;;;17.54;100.00;92588.63;2549824;23;20117;-83
2023/07/21 07:18:12;;;;;;;6.10;2.45;;;;;;;17.72;100.00;92587.63;2558699;23;20041;-81
2023/07/21 07:19:20;;;;;;;2.42;2.20;;;;;;;17.97;81.64;92584.25;2543126;23;20048;-80
2023/07/21 07:20:28;;;;;;;5.25;2.33;;;;;;;18.00;100.00;92588.72;2537591;23;20010;-81
2023/07/21 07:21:39;;;;;;;3.47;2.20;;;;;;;17.92;100.00;92590.34;2547838;23;20009;-82
2023/07/21 07:22:48;;;;;;;4.75;2.20;;;;;;;17.80;100.00;92589.47;2548346;23;20048;-83
2023/07/21 07:23:53;;;;;;;5.43;2.03;;;;;;;17.84;100.00;92591.97;2547381;23;20009;-83
2023/07/21 07:24:58;;;;;;;3.83;2.13;;;;;;;17.90;100.00;92592.75;2534486;23;20009;-81
2023/07/21 07:26:07;;;;;;;3.83;2.50;;;;;;;17.85;100.00;92590.75;2523758;23;20009;-81
2023/07/21 07:27:13;;;;;;;3.08;1.88;;;;;;;17.91;100.00;92596.19;2535212;23;20001;-81
2023/07/21 07:28:24;;;;;;;3.72;1.88;;;;;;;17.98;100.00;92596.53;2535461;23;20010;-80
2023/07/21 07:29:32;;;;;;;3.65;2.05;;;;;;;17.98;100.00;92591.13;2558298;23;20375;-83
2023/07/21 07:30:44;;;;;;;3.50;2.00;;;;;;;18.06;100.00;92605.00;2535228;23;20574;-81
2023/07/21 07:31:59;;;;;;;3.67;2.25;;;;;;;18.10;100.00;92594.72;2526684;23;19994;-83
2023/07/21 07:33:03;;;;;;;3.65;2.05;;;;;;;18.12;100.00;92594.97;2539768;23;20002;-83
2023/07/21 07:34:13;;;;;;;5.35;2.00;;;;;;;18.17;85.12;92602.38;2546954;23;20001;-81
2023/07/21 07:35:25;;;;;;;3.95;1.80;;;;;;;18.20;92.74;92598.00;2536353;23;20090;-82
2023/07/21 07:36:31;;;;;;;5.75;2.40;;;;;;;18.27;91.70;92603.00;2547902;23;20005;-79
2023/07/21 07:37:40;;;;;;;7.97;2.30;;;;;;;18.25;100.00;92597.28;2546155;23;20422;-82
2023/07/21 07:38:47;;;;;;;8.77;1.92;;;;;;;18.18;100.00;92601.19;2559486;23;20428;-80
2023/07/21 07:39:53;;;;;;;4.40;2.30;;;;;;;18.24;100.00;92603.94;2557668;23;20031;-79
2023/07/21 07:41:13;;;;;;;4.05;2.05;;;;;;;18.23;100.00;92599.75;2547025;23;20427;-80
2023/07/21 07:42:23;;;;;;;4.15;1.80;;;;;;;18.18;100.00;92597.75;2538727;23;20046;-79
2023/07/21 07:43:32;;;;;;;;;;;;;;;18.37;99.50;92599.63;2539915;23;20196;-79
2023/07/21 07:44:42;;;;;;;7.78;1.80;;;;;;;18.42;100.00;92603.63;2546758;23;19905;-82
2023/07/21 07:45:46;;;;;;;;;;;;;;;18.46;91.87;92595.28;2549907;23;20063;-81
2023/07/21 07:47:00;;;;;;;4.03;2.00;;;;;;;18.62;73.30;92600.84;2557901;23;19918;-81
2023/07/21 07:48:11;;;;;;;3.30;2.10;;;;;;;18.72;79.39;92598.72;2536025;23;20098;-80
2023/07/21 07:49:19;;;;;;;4.20;2.20;;;;;;;18.80;91.56;92599.03;2535222;23;20005;-83
2023/07/21 07:50:26;;;;;;;4.25;2.20;;;;;;;18.94;86.01;92594.72;2536520;23;20014;-80
2023/07/21 07:51:35;;;;;;;3.53;2.13;;;;;;;18.94;84.58;92595.44;2546109;23;20002;-80
2023/07/21 07:52:45;;;;;;;;;;;;;;;19.07;74.54;92593.09;2549072;23;20028;-81
2023/07/21 07:53:54;;;;;;;2.60;2.20;;;;;;;19.18;79.66;92595.09;2535848;23;19919;-80
2023/07/21 07:55:05;;;;;;;4.22;2.15;;;;;;;19.28;98.29;92601.09;2536271;23;20006;-80
2023/07/21 07:56:21;;;;;;;6.40;3.05;;;;;;;19.34;100.00;92597.19;2547785;23;20638;-82
2023/07/21 07:57:34;;;;;;;3.75;2.00;;;;;;;19.56;99.45;92591.13;2549461;23;20456;-80
2023/07/21 07:58:39;;;;;;;3.83;2.05;;;;;;;19.61;82.18;92587.72;2549487;23;20280;-82
2023/07/21 07:59:47;;;;;;;4.75;2.35;;;;;;;19.69;75.75;92584.56;2546972;23;20029;-81
2023/07/21 08:01:00;;;;;;;2.55;1.70;;;;;;;19.76;93.99;92576.72;2547840;23;20005;-81
2023/07/21 08:02:08;;;;;;;4.82;2.30;;;;;;;19.76;100.00;92581.41;2559430;23;20407;-81
2023/07/21 08:03:16;;;;;;;4.15;2.28;;;;;;;19.77;82.34;92578.19;2572168;23;20306;-81
2023/07/21 08:04:23;;;;;;;4.00;2.03;;;;;;;19.95;74.76;92579.72;2569539;23;20024;-83
2023/07/21 08:05:29;;;;;;;6.03;2.28;;;;;;;20.15;88.53;92581.50;2559193;23;20484;-81
2023/07/21 08:06:34;;;;;;;8.23;2.10;;;;;;;20.15;92.48;92580.75;2545619;23;20660;-80
2023/07/21 08:07:45;;;;;;;7.95;2.10;;;;;;;20.25;96.58;92582.03;2532604;23;20010;-82
2023/07/21 08:08:54;;;;;;;2.50;2.20;;;;;;;20.10;81.24;92582.22;2535180;23;20006;-82
2023/07/21 08:10:02;;;;;;;10.40;2.47;;;;;;;20.32;67.30;92576.84;2549060;23;20077;-80
2023/07/21 08:11:11;;;;;;;4.40;2.15;;;;;;;20.53;65.36;92582.81;2546334;23;20009;-81
2023/07/21 08:12:20;;;;;;;9.85;2.40;;;;;;;20.47;64.22;92578.59;2525589;23;20002;-80
2023/07/21 08:13:31;;;;;;;5.60;2.00;;;;;;;20.36;64.55;92577.34;2538095;23;20326;-79
2023/07/21 08:14:41;;;;;;;3.38;2.20;;;;;;;20.88;63.04;92570.72;2558669;23;19997;-79
2023/07/21 08:15:52;;;;;;;3.78;2.15;;;;;;;20.95;59.75;92578.38;2558441;23;20021;-81
2023/07/21 08:17:09;;;;;;;2.92;2.15;;;;;;;21.08;55.58;92577.88;2556278;23;20349;-79
2023/07/21 08:18:17;;;;;;;4.97;1.65;;;;;;;20.43;59.21;92578.84;2546563;23;20070;-82
2023/07/21 08:19:27;;;;;;;2.63;1.92;;;;;;;20.67;68.09;92572.22;2542419;23;20018;-80
2023/07/21 08:20:33;;;;;;;;;;;;;;;20.69;68.36;92573.22;2552149;23;20013;-80